sensor_id;sensor_type;location;lat;lon;timestamp;P1;durP1;ratioP1;P2;durP2;ratioP2
66145;SDS011;52948;60.040;30.320;2023-11-21T00:03:06;21.40;;;10.13;;
66145;SDS011;52948;60.040;30.320;2023-11-21T00:08:08;24.98;;;10.52;;
66145;SDS011;52948;60.040;30.320;2023-11-21T00:13:11;23.13;;;10.55;;
66145;SDS011;52948;60.040;30.320;2023-11-21T00:18:14;24.95;;;10.27;;
66145;SDS011;52948;60.040;30.320;2023-11-21T00:23:16;20.67;;;10.20;;
66145;SDS011;52948;60.040;30.320;2023-11-21T00:28:19;19.42;;;9.73;;
66145;SDS011;52948;60.040;30.320;2023-11-21T00:33:22;19.27;;;9.73;;
66145;SDS011;52948;60.040;30.320;2023-11-21T00:38:24;17.38;;;9.43;;
66145;SDS011;52948;60.040;30.320;2023-11-21T00:43:26;18.48;;;9.25;;
66145;SDS011;52948;60.040;30.320;2023-11-21T00:48:28;23.20;;;10.60;;
66145;SDS011;52948;60.040;30.320;2023-11-21T00:53:31;22.10;;;9.60;;
66145;SDS011;52948;60.040;30.320;2023-11-21T00:58:33;20.80;;;10.05;;
66145;SDS011;52948;60.040;30.320;2023-11-21T01:03:36;19.25;;;10.00;;
66145;SDS011;52948;60.040;30.320;2023-11-21T01:08:38;20.25;;;9.95;;
66145;SDS011;52948;60.040;30.320;2023-11-21T01:13:41;19.10;;;9.82;;
66145;SDS011;52948;60.040;30.320;2023-11-21T01:18:44;14.65;;;7.47;;
66145;SDS011;52948;60.040;30.320;2023-11-21T01:23:48;15.35;;;8.50;;
66145;SDS011;52948;60.040;30.320;2023-11-21T01:28:52;12.75;;;7.10;;
66145;SDS011;52948;60.040;30.320;2023-11-21T01:33:54;13.75;;;7.50;;
66145;SDS011;52948;60.040;30.320;2023-11-21T01:38:57;14.82;;;7.90;;
66145;SDS011;52948;60.040;30.320;2023-11-21T01:44:01;15.25;;;8.15;;
66145;SDS011;52948;60.040;30.320;2023-11-21T01:49:04;17.00;;;8.15;;
66145;SDS011;52948;60.040;30.320;2023-11-21T01:54:07;17.27;;;8.90;;
66145;SDS011;52948;60.040;30.320;2023-11-21T01:59:09;17.77;;;9.23;;
66145;SDS011;52948;60.040;30.320;2023-11-21T02:04:13;20.35;;;10.07;;
66145;SDS011;52948;60.040;30.320;2023-11-21T02:09:15;24.42;;;10.40;;
66145;SDS011;52948;60.040;30.320;2023-11-21T02:14:20;19.95;;;9.45;;
66145;SDS011;52948;60.040;30.320;2023-11-21T02:19:24;20.02;;;10.18;;
66145;SDS011;52948;60.040;30.320;2023-11-21T02:24:31;16.65;;;8.88;;
66145;SDS011;52948;60.040;30.320;2023-11-21T02:29:34;17.60;;;8.27;;
66145;SDS011;52948;60.040;30.320;2023-11-21T02:34:36;17.80;;;8.10;;
66145;SDS011;52948;60.040;30.320;2023-11-21T02:39:40;18.13;;;8.70;;
66145;SDS011;52948;60.040;30.320;2023-11-21T02:44:43;16.27;;;7.78;;
66145;SDS011;52948;60.040;30.320;2023-11-21T02:49:46;10.57;;;6.63;;
66145;SDS011;52948;60.040;30.320;2023-11-21T02:54:48;13.70;;;7.43;;
66145;SDS011;52948;60.040;30.320;2023-11-21T02:59:51;11.55;;;6.78;;
66145;SDS011;52948;60.040;30.320;2023-11-21T03:04:56;14.95;;;6.63;;
66145;SDS011;52948;60.040;30.320;2023-11-21T03:09:58;10.73;;;6.22;;
66145;SDS011;52948;60.040;30.320;2023-11-21T03:15:01;14.30;;;6.85;;
66145;SDS011;52948;60.040;30.320;2023-11-21T03:20:04;11.30;;;6.55;;
66145;SDS011;52948;60.040;30.320;2023-11-21T03:25:07;9.32;;;5.85;;
66145;SDS011;52948;60.040;30.320;2023-11-21T03:30:13;12.07;;;7.15;;
66145;SDS011;52948;60.040;30.320;2023-11-21T03:35:18;11.95;;;6.55;;
66145;SDS011;52948;60.040;30.320;2023-11-21T03:40:24;12.00;;;6.30;;
66145;SDS011;52948;60.040;30.320;2023-11-21T03:45:28;11.77;;;6.70;;
66145;SDS011;52948;60.040;30.320;2023-11-21T03:50:31;12.93;;;6.55;;
66145;SDS011;52948;60.040;30.320;2023-11-21T03:55:34;13.23;;;5.50;;
66145;SDS011;52948;60.040;30.320;2023-11-21T04:00:38;12.13;;;5.50;;
66145;SDS011;52948;60.040;30.320;2023-11-21T04:05:40;9.23;;;5.68;;
66145;SDS011;52948;60.040;30.320;2023-11-21T04:10:45;11.05;;;5.22;;
66145;SDS011;52948;60.040;30.320;2023-11-21T04:15:48;8.55;;;5.07;;
66145;SDS011;52948;60.040;30.320;2023-11-21T04:20:50;8.80;;;4.80;;
66145;SDS011;52948;60.040;30.320;2023-11-21T04:25:52;9.82;;;4.70;;
66145;SDS011;52948;60.040;30.320;2023-11-21T04:30:58;12.27;;;6.50;;
66145;SDS011;52948;60.040;30.320;2023-11-21T04:36:00;10.15;;;5.53;;
66145;SDS011;52948;60.040;30.320;2023-11-21T04:41:03;12.70;;;6.00;;
66145;SDS011;52948;60.040;30.320;2023-11-21T04:46:05;9.63;;;4.72;;
66145;SDS011;52948;60.040;30.320;2023-11-21T04:51:09;5.55;;;3.55;;
66145;SDS011;52948;60.040;30.320;2023-11-21T04:56:13;8.90;;;5.03;;
66145;SDS011;52948;60.040;30.320;2023-11-21T05:01:17;10.02;;;4.68;;
66145;SDS011;52948;60.040;30.320;2023-11-21T05:06:20;8.93;;;4.20;;
66145;SDS011;52948;60.040;30.320;2023-11-21T05:11:23;6.18;;;3.72;;
66145;SDS011;52948;60.040;30.320;2023-11-21T05:16:26;6.63;;;3.85;;
66145;SDS011;52948;60.040;30.320;2023-11-21T05:21:32;8.02;;;3.20;;
66145;SDS011;52948;60.040;30.320;2023-11-21T05:26:34;8.00;;;3.38;;
66145;SDS011;52948;60.040;30.320;2023-11-21T05:31:38;6.15;;;2.90;;
66145;SDS011;52948;60.040;30.320;2023-11-21T05:36:42;4.05;;;2.80;;
66145;SDS011;52948;60.040;30.320;2023-11-21T05:41:47;8.90;;;3.60;;
66145;SDS011;52948;60.040;30.320;2023-11-21T05:46:49;7.47;;;3.50;;
66145;SDS011;52948;60.040;30.320;2023-11-21T05:51:55;3.65;;;2.20;;
66145;SDS011;52948;60.040;30.320;2023-11-21T05:56:58;10.00;;;4.93;;
66145;SDS011;52948;60.040;30.320;2023-11-21T06:02:02;7.32;;;3.80;;
66145;SDS011;52948;60.040;30.320;2023-11-21T06:07:06;8.18;;;4.05;;
66145;SDS011;52948;60.040;30.320;2023-11-21T06:12:09;10.15;;;4.72;;
66145;SDS011;52948;60.040;30.320;2023-11-21T06:17:12;17.02;;;7.03;;
66145;SDS011;52948;60.040;30.320;2023-11-21T06:22:15;15.13;;;6.22;;
66145;SDS011;52948;60.040;30.320;2023-11-21T06:27:18;13.30;;;7.03;;
66145;SDS011;52948;60.040;30.320;2023-11-21T06:32:22;14.90;;;7.35;;
66145;SDS011;52948;60.040;30.320;2023-11-21T06:37:26;16.95;;;6.20;;
66145;SDS011;52948;60.040;30.320;2023-11-21T06:42:29;8.30;;;4.53;;
66145;SDS011;52948;60.040;30.320;2023-11-21T06:47:32;3.92;;;3.40;;
66145;SDS011;52948;60.040;30.320;2023-11-21T06:52:35;11.02;;;4.80;;
66145;SDS011;52948;60.040;30.320;2023-11-21T06:57:38;12.65;;;5.97;;
66145;SDS011;52948;60.040;30.320;2023-11-21T07:02:40;8.73;;;3.80;;
66145;SDS011;52948;60.040;30.320;2023-11-21T07:07:43;9.23;;;4.63;;
66145;SDS011;52948;60.040;30.320;2023-11-21T07:12:45;6.53;;;4.35;;
66145;SDS011;52948;60.040;30.320;2023-11-21T07:17:47;6.88;;;3.78;;
66145;SDS011;52948;60.040;30.320;2023-11-21T07:22:50;5.32;;;2.60;;
66145;SDS011;52948;60.040;30.320;2023-11-21T07:27:52;7.97;;;4.10;;
66145;SDS011;52948;60.040;30.320;2023-11-21T07:32:57;5.68;;;3.45;;
66145;SDS011;52948;60.040;30.320;2023-11-21T07:37:59;7.55;;;3.10;;
66145;SDS011;52948;60.040;30.320;2023-11-21T07:43:02;7.95;;;3.58;;
66145;SDS011;52948;60.040;30.320;2023-11-21T07:48:04;3.45;;;2.70;;
66145;SDS011;52948;60.040;30.320;2023-11-21T07:53:08;8.70;;;3.38;;
66145;SDS011;52948;60.040;30.320;2023-11-21T07:58:11;8.82;;;4.07;;
66145;SDS011;52948;60.040;30.320;2023-11-21T08:03:14;5.70;;;2.67;;
66145;SDS011;52948;60.040;30.320;2023-11-21T08:08:16;5.68;;;2.63;;
66145;SDS011;52948;60.040;30.320;2023-11-21T08:13:20;5.95;;;2.88;;
66145;SDS011;52948;60.040;30.320;2023-11-21T08:18:23;6.15;;;2.80;;
66145;SDS011;52948;60.040;30.320;2023-11-21T08:23:26;7.68;;;2.55;;
66145;SDS011;52948;60.040;30.320;2023-11-21T08:28:28;3.78;;;2.30;;
66145;SDS011;52948;60.040;30.320;2023-11-21T08:33:31;10.13;;;3.97;;
66145;SDS011;52948;60.040;30.320;2023-11-21T08:38:33;8.05;;;3.88;;
66145;SDS011;52948;60.040;30.320;2023-11-21T08:43:39;5.45;;;3.10;;
66145;SDS011;52948;60.040;30.320;2023-11-21T08:48:41;8.07;;;3.78;;
66145;SDS011;52948;60.040;30.320;2023-11-21T08:53:45;5.32;;;3.20;;
66145;SDS011;52948;60.040;30.320;2023-11-21T08:58:47;10.20;;;2.25;;
66145;SDS011;52948;60.040;30.320;2023-11-21T09:03:52;3.85;;;2.63;;
66145;SDS011;52948;60.040;30.320;2023-11-21T09:08:55;7.25;;;3.72;;
66145;SDS011;52948;60.040;30.320;2023-11-21T09:13:58;7.50;;;3.22;;
66145;SDS011;52948;60.040;30.320;2023-11-21T09:19:01;7.03;;;3.60;;
66145;SDS011;52948;60.040;30.320;2023-11-21T09:24:07;7.50;;;3.75;;
66145;SDS011;52948;60.040;30.320;2023-11-21T09:29:11;7.13;;;4.13;;
66145;SDS011;52948;60.040;30.320;2023-11-21T09:34:13;8.15;;;4.30;;
66145;SDS011;52948;60.040;30.320;2023-11-21T09:39:18;7.80;;;3.60;;
66145;SDS011;52948;60.040;30.320;2023-11-21T09:50:01;6.50;;;3.75;;
66145;SDS011;52948;60.040;30.320;2023-11-21T09:55:04;7.13;;;3.42;;
66145;SDS011;52948;60.040;30.320;2023-11-21T10:00:10;6.32;;;3.90;;
66145;SDS011;52948;60.040;30.320;2023-11-21T10:05:14;7.53;;;3.78;;
66145;SDS011;52948;60.040;30.320;2023-11-21T10:10:18;5.60;;;2.53;;
66145;SDS011;52948;60.040;30.320;2023-11-21T10:15:21;9.30;;;4.53;;
66145;SDS011;52948;60.040;30.320;2023-11-21T10:20:24;5.80;;;3.65;;
66145;SDS011;52948;60.040;30.320;2023-11-21T10:25:28;6.68;;;3.60;;
66145;SDS011;52948;60.040;30.320;2023-11-21T10:30:34;6.32;;;3.58;;
66145;SDS011;52948;60.040;30.320;2023-11-21T10:35:46;6.60;;;4.00;;
66145;SDS011;52948;60.040;30.320;2023-11-21T10:40:53;6.07;;;3.58;;
66145;SDS011;52948;60.040;30.320;2023-11-21T10:45:57;6.05;;;3.75;;
66145;SDS011;52948;60.040;30.320;2023-11-21T10:51:05;5.43;;;2.53;;
66145;SDS011;52948;60.040;30.320;2023-11-21T10:56:09;9.63;;;3.72;;
66145;SDS011;52948;60.040;30.320;2023-11-21T11:01:19;4.57;;;2.80;;
66145;SDS011;52948;60.040;30.320;2023-11-21T11:06:25;4.03;;;2.95;;
66145;SDS011;52948;60.040;30.320;2023-11-21T11:11:30;3.13;;;2.20;;
66145;SDS011;52948;60.040;30.320;2023-11-21T11:16:33;4.38;;;2.45;;
66145;SDS011;52948;60.040;30.320;2023-11-21T11:37:58;2.72;;;1.77;;
66145;SDS011;52948;60.040;30.320;2023-11-21T11:43:01;5.35;;;2.75;;
66145;SDS011;52948;60.040;30.320;2023-11-21T11:48:07;4.40;;;2.25;;
66145;SDS011;52948;60.040;30.320;2023-11-21T11:53:14;3.97;;;2.10;;
66145;SDS011;52948;60.040;30.320;2023-11-21T11:58:17;1.27;;;0.82;;
66145;SDS011;52948;60.040;30.320;2023-11-21T12:03:19;2.55;;;1.80;;
66145;SDS011;52948;60.040;30.320;2023-11-21T12:08:22;4.63;;;2.28;;
66145;SDS011;52948;60.040;30.320;2023-11-21T12:13:32;4.43;;;2.03;;
66145;SDS011;52948;60.040;30.320;2023-11-21T12:18:35;1.85;;;1.40;;
66145;SDS011;52948;60.040;30.320;2023-11-21T12:23:37;2.97;;;1.85;;
66145;SDS011;52948;60.040;30.320;2023-11-21T12:28:40;3.17;;;1.42;;
66145;SDS011;52948;60.040;30.320;2023-11-21T12:33:42;2.53;;;1.75;;
66145;SDS011;52948;60.040;30.320;2023-11-21T12:38:45;4.65;;;1.70;;
66145;SDS011;52948;60.040;30.320;2023-11-21T12:43:47;5.57;;;1.83;;
66145;SDS011;52948;60.040;30.320;2023-11-21T12:48:50;2.38;;;1.92;;
66145;SDS011;52948;60.040;30.320;2023-11-21T12:53:53;2.55;;;1.65;;
66145;SDS011;52948;60.040;30.320;2023-11-21T12:58:55;1.80;;;1.08;;
66145;SDS011;52948;60.040;30.320;2023-11-21T13:03:58;1.83;;;1.73;;
66145;SDS011;52948;60.040;30.320;2023-11-21T13:09:01;4.03;;;1.60;;
66145;SDS011;52948;60.040;30.320;2023-11-21T13:14:06;3.85;;;1.83;;
66145;SDS011;52948;60.040;30.320;2023-11-21T13:19:09;3.15;;;2.00;;
66145;SDS011;52948;60.040;30.320;2023-11-21T13:24:11;2.85;;;1.75;;
66145;SDS011;52948;60.040;30.320;2023-11-21T13:29:14;1.50;;;1.05;;
66145;SDS011;52948;60.040;30.320;2023-11-21T13:34:17;4.60;;;1.85;;
66145;SDS011;52948;60.040;30.320;2023-11-21T13:39:21;2.92;;;1.40;;
66145;SDS011;52948;60.040;30.320;2023-11-21T13:44:23;2.28;;;1.30;;
66145;SDS011;52948;60.040;30.320;2023-11-21T13:49:31;1.73;;;1.23;;
66145;SDS011;52948;60.040;30.320;2023-11-21T13:54:37;1.67;;;0.80;;
66145;SDS011;52948;60.040;30.320;2023-11-21T13:59:40;1.65;;;1.00;;
66145;SDS011;52948;60.040;30.320;2023-11-21T14:04:42;1.33;;;1.17;;
66145;SDS011;52948;60.040;30.320;2023-11-21T14:09:58;1.35;;;1.20;;
66145;SDS011;52948;60.040;30.320;2023-11-21T14:15:00;1.15;;;1.05;;
66145;SDS011;52948;60.040;30.320;2023-11-21T14:20:07;4.68;;;1.67;;
66145;SDS011;52948;60.040;30.320;2023-11-21T14:25:16;2.13;;;0.80;;
66145;SDS011;52948;60.040;30.320;2023-11-21T14:30:19;1.33;;;0.80;;
66145;SDS011;52948;60.040;30.320;2023-11-21T14:35:24;1.10;;;0.57;;
66145;SDS011;52948;60.040;30.320;2023-11-21T14:40:27;0.70;;;0.70;;
66145;SDS011;52948;60.040;30.320;2023-11-21T14:45:34;2.27;;;1.60;;
66145;SDS011;52948;60.040;30.320;2023-11-21T14:50:37;1.58;;;0.90;;
66145;SDS011;52948;60.040;30.320;2023-11-21T14:55:42;3.10;;;1.73;;
66145;SDS011;52948;60.040;30.320;2023-11-21T15:00:56;0.30;;;0.30;;
66145;SDS011;52948;60.040;30.320;2023-11-21T15:06:01;2.47;;;2.00;;
66145;SDS011;52948;60.040;30.320;2023-11-21T15:11:39;1.42;;;1.30;;
66145;SDS011;52948;60.040;30.320;2023-11-21T15:16:43;2.95;;;1.05;;
66145;SDS011;52948;60.040;30.320;2023-11-21T15:21:50;3.13;;;1.10;;
66145;SDS011;52948;60.040;30.320;2023-11-21T15:26:53;3.10;;;0.95;;
66145;SDS011;52948;60.040;30.320;2023-11-21T15:31:55;2.70;;;1.90;;
66145;SDS011;52948;60.040;30.320;2023-11-21T15:36:58;3.90;;;2.33;;
66145;SDS011;52948;60.040;30.320;2023-11-21T15:42:00;0.90;;;0.38;;
66145;SDS011;52948;60.040;30.320;2023-11-21T15:47:03;2.03;;;1.58;;
66145;SDS011;52948;60.040;30.320;2023-11-21T15:52:06;4.57;;;1.90;;
66145;SDS011;52948;60.040;30.320;2023-11-21T15:57:12;1.80;;;1.05;;
66145;SDS011;52948;60.040;30.320;2023-11-21T16:02:14;7.25;;;2.58;;
66145;SDS011;52948;60.040;30.320;2023-11-21T16:07:17;4.78;;;1.88;;
66145;SDS011;52948;60.040;30.320;2023-11-21T16:12:20;4.28;;;2.25;;
66145;SDS011;52948;60.040;30.320;2023-11-21T16:17:23;3.92;;;2.70;;
66145;SDS011;52948;60.040;30.320;2023-11-21T16:22:25;1.85;;;1.38;;
66145;SDS011;52948;60.040;30.320;2023-11-21T16:27:29;5.05;;;1.40;;
66145;SDS011;52948;60.040;30.320;2023-11-21T16:32:32;3.55;;;1.58;;
66145;SDS011;52948;60.040;30.320;2023-11-21T16:37:36;2.22;;;1.70;;
66145;SDS011;52948;60.040;30.320;2023-11-21T16:42:39;1.48;;;1.17;;
66145;SDS011;52948;60.040;30.320;2023-11-21T16:47:42;1.50;;;1.00;;
66145;SDS011;52948;60.040;30.320;2023-11-21T16:52:44;1.48;;;0.95;;
66145;SDS011;52948;60.040;30.320;2023-11-21T16:57:47;2.15;;;1.02;;
66145;SDS011;52948;60.040;30.320;2023-11-21T17:02:50;2.40;;;1.20;;
66145;SDS011;52948;60.040;30.320;2023-11-21T17:07:53;0.40;;;0.40;;
66145;SDS011;52948;60.040;30.320;2023-11-21T17:12:57;4.07;;;1.08;;
66145;SDS011;52948;60.040;30.320;2023-11-21T17:18:00;2.22;;;0.73;;
66145;SDS011;52948;60.040;30.320;2023-11-21T17:23:05;1.08;;;0.88;;
66145;SDS011;52948;60.040;30.320;2023-11-21T17:28:10;2.40;;;1.13;;
66145;SDS011;52948;60.040;30.320;2023-11-21T17:33:12;4.15;;;1.40;;
66145;SDS011;52948;60.040;30.320;2023-11-21T17:38:17;3.95;;;1.95;;
66145;SDS011;52948;60.040;30.320;2023-11-21T17:43:19;3.70;;;2.13;;
66145;SDS011;52948;60.040;30.320;2023-11-21T17:48:23;4.20;;;2.10;;
66145;SDS011;52948;60.040;30.320;2023-11-21T17:53:28;4.55;;;2.00;;
66145;SDS011;52948;60.040;30.320;2023-11-21T17:58:30;5.80;;;1.90;;
66145;SDS011;52948;60.040;30.320;2023-11-21T18:03:33;1.63;;;1.02;;
66145;SDS011;52948;60.040;30.320;2023-11-21T18:08:35;4.25;;;2.00;;
66145;SDS011;52948;60.040;30.320;2023-11-21T18:13:39;3.92;;;1.67;;
66145;SDS011;52948;60.040;30.320;2023-11-21T18:18:41;3.58;;;2.00;;
66145;SDS011;52948;60.040;30.320;2023-11-21T18:23:44;3.65;;;1.83;;
66145;SDS011;52948;60.040;30.320;2023-11-21T18:28:48;4.57;;;1.90;;
66145;SDS011;52948;60.040;30.320;2023-11-21T18:33:50;4.88;;;2.03;;
66145;SDS011;52948;60.040;30.320;2023-11-21T18:38:52;2.35;;;1.25;;
66145;SDS011;52948;60.040;30.320;2023-11-21T18:43:55;2.67;;;1.30;;
66145;SDS011;52948;60.040;30.320;2023-11-21T18:48:57;1.75;;;1.27;;
66145;SDS011;52948;60.040;30.320;2023-11-21T18:54:00;1.30;;;1.00;;
66145;SDS011;52948;60.040;30.320;2023-11-21T18:59:04;1.10;;;1.00;;
66145;SDS011;52948;60.040;30.320;2023-11-21T19:04:10;0.45;;;0.38;;
66145;SDS011;52948;60.040;30.320;2023-11-21T19:09:13;2.28;;;1.27;;
66145;SDS011;52948;60.040;30.320;2023-11-21T19:14:15;1.90;;;1.25;;
66145;SDS011;52948;60.040;30.320;2023-11-21T19:19:17;1.40;;;0.68;;
66145;SDS011;52948;60.040;30.320;2023-11-21T19:24:20;1.75;;;1.48;;
66145;SDS011;52948;60.040;30.320;2023-11-21T19:29:22;2.13;;;1.35;;
66145;SDS011;52948;60.040;30.320;2023-11-21T19:34:25;1.02;;;0.73;;
66145;SDS011;52948;60.040;30.320;2023-11-21T19:39:27;1.90;;;0.80;;
66145;SDS011;52948;60.040;30.320;2023-11-21T19:44:30;2.42;;;1.25;;
66145;SDS011;52948;60.040;30.320;2023-11-21T19:49:32;1.85;;;1.30;;
66145;SDS011;52948;60.040;30.320;2023-11-21T19:54:35;1.00;;;1.00;;
66145;SDS011;52948;60.040;30.320;2023-11-21T19:59:37;0.77;;;0.43;;
66145;SDS011;52948;60.040;30.320;2023-11-21T20:04:44;0.90;;;0.82;;
66145;SDS011;52948;60.040;30.320;2023-11-21T20:09:47;1.25;;;0.98;;
66145;SDS011;52948;60.040;30.320;2023-11-21T20:14:51;1.35;;;1.15;;
66145;SDS011;52948;60.040;30.320;2023-11-21T20:19:53;1.52;;;1.10;;
66145;SDS011;52948;60.040;30.320;2023-11-21T20:24:56;2.92;;;1.33;;
66145;SDS011;52948;60.040;30.320;2023-11-21T20:29:58;1.80;;;1.33;;
66145;SDS011;52948;60.040;30.320;2023-11-21T20:35:02;0.73;;;0.45;;
66145;SDS011;52948;60.040;30.320;2023-11-21T20:40:07;2.03;;;1.15;;
66145;SDS011;52948;60.040;30.320;2023-11-21T20:45:10;1.45;;;0.98;;
66145;SDS011;52948;60.040;30.320;2023-11-21T20:50:18;4.72;;;1.45;;
66145;SDS011;52948;60.040;30.320;2023-11-21T20:55:24;1.35;;;1.25;;
66145;SDS011;52948;60.040;30.320;2023-11-21T21:00:26;0.75;;;0.75;;
66145;SDS011;52948;60.040;30.320;2023-11-21T21:05:28;1.58;;;1.48;;
66145;SDS011;52948;60.040;30.320;2023-11-21T21:10:31;2.22;;;1.38;;
66145;SDS011;52948;60.040;30.320;2023-11-21T21:15:33;1.88;;;1.38;;
66145;SDS011;52948;60.040;30.320;2023-11-21T21:20:36;3.45;;;1.85;;
66145;SDS011;52948;60.040;30.320;2023-11-21T21:25:39;2.10;;;1.40;;
66145;SDS011;52948;60.040;30.320;2023-11-21T21:30:41;1.15;;;0.93;;
66145;SDS011;52948;60.040;30.320;2023-11-21T21:35:46;3.85;;;2.70;;
66145;SDS011;52948;60.040;30.320;2023-11-21T21:40:49;4.95;;;2.05;;
66145;SDS011;52948;60.040;30.320;2023-11-21T21:45:51;4.22;;;2.15;;
66145;SDS011;52948;60.040;30.320;2023-11-21T21:50:54;2.97;;;1.20;;
66145;SDS011;52948;60.040;30.320;2023-11-21T21:55:56;2.10;;;1.33;;
66145;SDS011;52948;60.040;30.320;2023-11-21T22:00:59;2.15;;;1.55;;
66145;SDS011;52948;60.040;30.320;2023-11-21T22:06:04;8.18;;;2.00;;
66145;SDS011;52948;60.040;30.320;2023-11-21T22:11:07;1.88;;;1.10;;
66145;SDS011;52948;60.040;30.320;2023-11-21T22:16:10;1.67;;;1.50;;
66145;SDS011;52948;60.040;30.320;2023-11-21T22:21:13;2.75;;;1.40;;
66145;SDS011;52948;60.040;30.320;2023-11-21T22:26:16;3.08;;;1.83;;
66145;SDS011;52948;60.040;30.320;2023-11-21T22:31:19;3.78;;;1.70;;
66145;SDS011;52948;60.040;30.320;2023-11-21T22:36:21;6.35;;;2.60;;
66145;SDS011;52948;60.040;30.320;2023-11-21T22:41:24;6.75;;;3.80;;
66145;SDS011;52948;60.040;30.320;2023-11-21T22:46:27;11.77;;;4.72;;
66145;SDS011;52948;60.040;30.320;2023-11-21T22:51:30;9.30;;;4.47;;
66145;SDS011;52948;60.040;30.320;2023-11-21T22:56:32;5.85;;;3.47;;
66145;SDS011;52948;60.040;30.320;2023-11-21T23:01:35;10.63;;;4.18;;
66145;SDS011;52948;60.040;30.320;2023-11-21T23:06:37;4.63;;;3.30;;
66145;SDS011;52948;60.040;30.320;2023-11-21T23:11:42;8.65;;;4.20;;
66145;SDS011;52948;60.040;30.320;2023-11-21T23:16:45;8.63;;;4.43;;
66145;SDS011;52948;60.040;30.320;2023-11-21T23:21:50;10.65;;;5.18;;
66145;SDS011;52948;60.040;30.320;2023-11-21T23:26:53;9.30;;;3.53;;
66145;SDS011;52948;60.040;30.320;2023-11-21T23:31:55;7.53;;;3.13;;
66145;SDS011;52948;60.040;30.320;2023-11-21T23:36:57;5.25;;;3.08;;
66145;SDS011;52948;60.040;30.320;2023-11-21T23:41:59;6.90;;;3.65;;
66145;SDS011;52948;60.040;30.320;2023-11-21T23:47:01;4.45;;;3.10;;
66145;SDS011;52948;60.040;30.320;2023-11-21T23:52:05;2.20;;;1.63;;
66145;SDS011;52948;60.040;30.320;2023-11-21T23:57:09;4.15;;;2.50;;
